Kenora Airport
CYQK : now visible

Airfield :











YOU CAN JOIN US ON...

 
LOGIN :

Register | Disclaimer

   EN    FR    IT 

 









Legend :    VFR   Marginal VFR   IFR   Intensive IFR   Very Intensive IFR
Visi :
Ceiling :
>= 8 km
>= 3000ft
5 to 8 km
1000 to 3000 ft
1500m to 5 km
500 to 1000 ft
800 to 1500m
200 to 500 ft
< 800m
< 200 ft
Symbols :   Thunderstorms  Fog  Heavy snow  Heavy precipitations  Wind > 20 kt






- Airport Elevation : 1332 ft
- IATA code : YQK


CYQK - Kenora

CURRENT METAR :
  • 151700Z 08005KT 070V150 20SM BKN060 BKN240 M11/M15 A3034 RMK SC6CI1 SLP309

EXPIRED METARs :
  • 151600Z 06005KT 20SM FEW015 BKN060 M11/M15 A3033 RMK SC1SC7 SC TR SLP305
  • 151500Z 05006KT 010V070 20SM FEW015 BKN060 M12/M16 A3032 RMK SC1SC6 SLP300

TAF TAF CYQK
Valid from the 15 at 14:00 until the 16 at 02:00 UTC


151338Z 1514/1602 02005KT P6SM BKN060
BECMG 1516/1518 06006KT SCT080
FM152300 13008KT P6SM SCT060 RMK NXT FCST BY 152000Z



MET'MAP, your aeronautical weather chart ! - Copyright ORBIFLY December 2007 - Disclaimer

ORBIFLY MET'MAP TEAM :

Programming & Development : Alexandra Zaïnal
Concept & Development : Baudouin d'Aumeries
Co-Development & Prog : Marc-Olivier Méhu
Technical & hardware support : Manuel Goepfert

Contact : metmap@orbifly.com




SOURCES & CREDITS :

   NOAA       Earth
Advisory